Time;durP1;ratioP1;P1;durP2;ratioP2;P2;SDS_P1;SDS_P2;PMS_P1;PMS_P2;Temp;Humidity;BMP_temperature;BMP_pressure;BME280_temperature;BME280_humidity;BME280_pressure;Samples;Min_cycle;Max_cycle;Signal;HPM_P1;HPM_P2
2023/07/29 00:02:10;;;;;;;3.92;1.70;;;;;;;;;;4967436;28;20414;-61
2023/07/29 00:04:36;;;;;;;3.95;1.80;;;;;;;;;;4969198;28;20035;-60
2023/07/29 00:07:02;;;;;;;2.60;1.55;;;;;;;;;;4971966;28;20036;-60
2023/07/29 00:09:28;;;;;;;3.20;1.70;;;;;;;;;;4969802;28;20042;-60
2023/07/29 00:11:54;;;;;;;2.38;1.65;;;;;;;;;;4967264;28;20054;-60
2023/07/29 00:14:20;;;;;;;5.75;1.85;;;;;;;;;;4966817;28;20033;-60
2023/07/29 00:16:47;;;;;;;3.28;1.63;;;;;;;;;;4966541;28;20418;-61
2023/07/29 00:19:13;;;;;;;5.80;1.83;;;;;;;;;;4966886;28;20042;-60
2023/07/29 00:21:40;;;;;;;3.33;1.80;;;;;;;;;;4968150;28;20042;-60
2023/07/29 00:24:07;;;;;;;4.95;2.15;;;;;;;;;;4967263;28;20398;-60
2023/07/29 00:26:34;;;;;;;3.03;1.80;;;;;;;;;;4967118;28;20143;-60
2023/07/29 00:29:00;;;;;;;5.00;1.88;;;;;;;;;;4968140;28;20059;-60
2023/07/29 00:31:27;;;;;;;3.85;2.05;;;;;;;;;;4966846;28;20050;-61
2023/07/29 00:33:54;;;;;;;6.65;2.10;;;;;;;;;;4968800;28;20031;-60
2023/07/29 00:36:20;;;;;;;4.55;2.08;;;;;;;;;;4968048;28;20049;-62
2023/07/29 00:38:46;;;;;;;3.20;1.83;;;;;;;;;;4968209;28;20054;-61
2023/07/29 00:41:22;;;;;;;4.40;2.30;;;;;;;;;;4967834;28;20050;-60
2023/07/29 00:43:48;;;;;;;11.82;2.30;;;;;;;;;;4965024;28;20030;-61
2023/07/29 00:46:15;;;;;;;4.57;2.33;;;;;;;;;;4972418;28;20039;-62
2023/07/29 00:48:42;;;;;;;4.75;2.58;;;;;;;;;;4966507;28;20422;-59
2023/07/29 00:51:08;;;;;;;5.63;2.30;;;;;;;;;;4971200;28;20046;-61
2023/07/29 00:53:34;;;;;;;6.13;2.58;;;;;;;;;;4966490;28;20050;-60
2023/07/29 00:56:00;;;;;;;8.45;3.08;;;;;;;;;;4969269;28;20058;-60
2023/07/29 00:58:27;;;;;;;5.60;3.33;;;;;;;;;;4967762;28;20043;-60
2023/07/29 01:00:53;;;;;;;5.97;2.70;;;;;;;;;;4970848;28;20043;-61
2023/07/29 01:03:20;;;;;;;5.28;2.60;;;;;;;;;;4967234;28;20785;-61
2023/07/29 01:06:08;;;;;;;7.35;2.92;;;;;;;;;;4969047;28;20047;-62
2023/07/29 01:08:43;;;;;;;6.97;2.95;;;;;;;;;;4965449;28;20041;-61
2023/07/29 01:11:41;;;;;;;7.28;2.97;;;;;;;;;;4967133;28;20047;-61
2023/07/29 01:14:23;;;;;;;5.38;2.78;;;;;;;;;;4975170;28;20050;-61
2023/07/29 01:16:57;;;;;;;5.15;2.65;;;;;;;;;;4969247;28;20050;-60
2023/07/29 01:19:46;;;;;;;5.95;2.97;;;;;;;;;;4967961;28;20030;-61
2023/07/29 01:22:13;;;;;;;7.35;2.58;;;;;;;;;;4966111;28;20080;-59
2023/07/29 01:24:39;;;;;;;6.72;2.58;;;;;;;;;;4965998;28;20049;-60
2023/07/29 01:27:05;;;;;;;9.18;2.83;;;;;;;;;;4963294;28;20046;-60
2023/07/29 01:29:32;;;;;;;5.65;2.70;;;;;;;;;;4964929;28;20059;-60
2023/07/29 01:32:13;;;;;;;8.30;3.10;;;;;;;;;;4966697;28;20450;-60
2023/07/29 01:34:46;;;;;;;7.03;3.13;;;;;;;;;;4965032;28;21055;-60
2023/07/29 01:37:17;;;;;;;8.05;2.88;;;;;;;;;;4965875;28;20055;-60
2023/07/29 01:39:46;;;;;;;7.80;3.28;;;;;;;;;;4965674;28;20034;-60
2023/07/29 01:42:13;;;;;;;5.50;2.95;;;;;;;;;;4966131;28;20045;-61
2023/07/29 01:44:42;;;;;;;8.00;3.60;;;;;;;;;;4964800;28;20066;-59
2023/07/29 01:47:08;;;;;;;7.23;2.90;;;;;;;;;;4967517;28;20031;-60
2023/07/29 01:49:34;;;;;;;6.32;3.20;;;;;;;;;;4965848;28;20305;-61
2023/07/29 01:52:00;;;;;;;5.93;3.20;;;;;;;;;;4967592;28;20407;-59
2023/07/29 01:54:27;;;;;;;6.32;3.15;;;;;;;;;;4964194;28;20046;-59
2023/07/29 01:56:53;;;;;;;7.72;3.47;;;;;;;;;;4965282;28;20494;-59
2023/07/29 01:59:19;;;;;;;6.18;3.08;;;;;;;;;;4965683;28;20046;-61
2023/07/29 02:01:46;;;;;;;5.65;3.13;;;;;;;;;;4968018;28;20043;-61
2023/07/29 02:04:12;;;;;;;6.05;3.17;;;;;;;;;;4972024;28;20490;-61
2023/07/29 02:06:38;;;;;;;7.13;3.40;;;;;;;;;;4968500;28;20062;-59
2023/07/29 02:09:04;;;;;;;6.75;3.20;;;;;;;;;;4974100;28;20053;-59
2023/07/29 02:11:30;;;;;;;6.57;2.90;;;;;;;;;;4972130;28;20050;-60
2023/07/29 02:13:57;;;;;;;7.63;3.30;;;;;;;;;;4973894;28;20057;-60
2023/07/29 02:16:23;;;;;;;9.93;3.45;;;;;;;;;;4968179;28;20035;-60
2023/07/29 02:18:50;;;;;;;8.70;2.95;;;;;;;;;;4969418;28;20035;-59
2023/07/29 02:21:16;;;;;;;4.85;3.10;;;;;;;;;;4969195;28;20066;-60
2023/07/29 02:23:43;;;;;;;8.18;3.05;;;;;;;;;;4968484;28;20526;-59
2023/07/29 02:26:09;;;;;;;9.25;3.20;;;;;;;;;;4970456;28;20042;-60
2023/07/29 02:28:35;;;;;;;6.20;3.30;;;;;;;;;;4968288;28;20115;-60
2023/07/29 02:31:20;;;;;;;6.55;3.20;;;;;;;;;;4970952;28;20431;-60
2023/07/29 02:33:47;;;;;;;5.68;3.20;;;;;;;;;;4984860;28;20062;-59
2023/07/29 02:36:14;;;;;;;5.20;3.08;;;;;;;;;;4973012;28;20038;-60
2023/07/29 02:38:40;;;;;;;6.60;3.17;;;;;;;;;;4970543;28;20051;-60
2023/07/29 02:41:09;;;;;;;9.07;3.20;;;;;;;;;;4970411;28;20051;-60
2023/07/29 02:43:36;;;;;;;4.97;2.80;;;;;;;;;;4969346;28;20039;-60
2023/07/29 02:46:02;;;;;;;10.48;3.53;;;;;;;;;;4969596;28;20293;-59
2023/07/29 02:48:29;;;;;;;8.27;2.83;;;;;;;;;;4969517;28;20035;-59
2023/07/29 02:50:55;;;;;;;5.93;3.20;;;;;;;;;;4972538;28;20042;-61
2023/07/29 02:53:22;;;;;;;9.07;3.40;;;;;;;;;;4967536;28;20046;-60
2023/07/29 02:55:49;;;;;;;9.10;3.38;;;;;;;;;;4969870;28;20047;-60
2023/07/29 02:58:15;;;;;;;6.97;3.20;;;;;;;;;;4971364;28;20042;-61
2023/07/29 03:00:41;;;;;;;4.85;3.13;;;;;;;;;;4973794;28;20058;-61
2023/07/29 03:03:08;;;;;;;6.50;3.72;;;;;;;;;;4969694;28;20046;-60
2023/07/29 03:05:35;;;;;;;6.97;3.08;;;;;;;;;;4971063;28;20035;-60
2023/07/29 03:08:01;;;;;;;5.57;3.25;;;;;;;;;;4972588;28;20033;-60
2023/07/29 03:10:27;;;;;;;6.80;3.03;;;;;;;;;;4970111;28;20038;-60
2023/07/29 03:12:54;;;;;;;6.65;3.20;;;;;;;;;;4970278;28;20039;-61
2023/07/29 03:15:24;;;;;;;7.60;2.90;;;;;;;;;;4969550;28;20039;-61
2023/07/29 03:17:51;;;;;;;7.55;3.10;;;;;;;;;;4964661;28;20054;-60
2023/07/29 03:20:19;;;;;;;5.60;3.33;;;;;;;;;;4969001;28;20053;-60
2023/07/29 03:22:46;;;;;;;9.48;3.15;;;;;;;;;;4953870;28;20057;-60
2023/07/29 03:25:13;;;;;;;7.45;3.15;;;;;;;;;;4968041;28;20059;-60
2023/07/29 03:27:42;;;;;;;8.98;2.92;;;;;;;;;;4970200;28;20058;-60
2023/07/29 03:30:08;;;;;;;7.75;3.20;;;;;;;;;;4971145;28;20053;-60
2023/07/29 03:32:34;;;;;;;5.80;2.90;;;;;;;;;;4966311;28;20047;-60
2023/07/29 03:35:00;;;;;;;7.35;3.38;;;;;;;;;;4973462;28;20047;-61
2023/07/29 03:37:27;;;;;;;6.28;3.38;;;;;;;;;;4982076;28;20452;-60
2023/07/29 03:39:53;;;;;;;11.02;3.83;;;;;;;;;;4969011;28;20066;-60
2023/07/29 03:42:19;;;;;;;6.32;3.15;;;;;;;;;;4969253;28;20347;-60
2023/07/29 03:44:45;;;;;;;9.30;3.58;;;;;;;;;;4968689;28;20046;-60
2023/07/29 03:47:11;;;;;;;6.97;3.10;;;;;;;;;;4970124;28;20446;-60
2023/07/29 03:49:39;;;;;;;7.55;3.58;;;;;;;;;;4967049;28;20065;-60
2023/07/29 03:52:06;;;;;;;6.95;3.42;;;;;;;;;;4968491;28;20403;-60
2023/07/29 03:54:32;;;;;;;8.38;3.53;;;;;;;;;;4967698;28;20522;-60
2023/07/29 03:56:59;;;;;;;8.77;3.53;;;;;;;;;;4968832;28;20038;-60
2023/07/29 03:59:25;;;;;;;6.15;3.28;;;;;;;;;;4968598;28;20046;-60
2023/07/29 04:01:51;;;;;;;5.55;3.08;;;;;;;;;;4971525;28;20055;-60
2023/07/29 04:04:17;;;;;;;5.47;3.20;;;;;;;;;;4969591;28;20570;-60
2023/07/29 04:06:43;;;;;;;6.07;3.30;;;;;;;;;;4967805;28;20496;-61
2023/07/29 04:09:09;;;;;;;6.43;3.28;;;;;;;;;;4957310;28;20041;-60
2023/07/29 04:11:35;;;;;;;5.57;3.03;;;;;;;;;;4973193;28;20048;-60
2023/07/29 04:14:01;;;;;;;5.00;3.22;;;;;;;;;;4968186;28;20610;-58
2023/07/29 04:16:28;;;;;;;6.10;3.10;;;;;;;;;;4968185;28;20026;-61
2023/07/29 04:18:54;;;;;;;6.10;2.95;;;;;;;;;;4968839;28;20402;-61
2023/07/29 04:21:21;;;;;;;6.10;3.17;;;;;;;;;;4967444;28;20038;-60
2023/07/29 04:23:47;;;;;;;9.88;3.83;;;;;;;;;;4965231;28;20042;-60
2023/07/29 04:26:13;;;;;;;7.53;3.33;;;;;;;;;;4968425;28;20061;-60
2023/07/29 04:28:39;;;;;;;8.82;3.05;;;;;;;;;;4965627;28;20055;-60
2023/07/29 04:31:05;;;;;;;5.10;3.40;;;;;;;;;;4974683;28;20033;-60
2023/07/29 04:33:32;;;;;;;5.97;3.15;;;;;;;;;;4949589;28;20541;-60
2023/07/29 04:35:58;;;;;;;7.65;3.28;;;;;;;;;;4969312;28;20085;-60
2023/07/29 04:38:30;;;;;;;6.57;3.30;;;;;;;;;;4967562;28;20107;-60
2023/07/29 04:40:56;;;;;;;5.40;3.13;;;;;;;;;;4972435;28;20035;-60
2023/07/29 04:43:22;;;;;;;6.10;3.15;;;;;;;;;;4968381;28;20580;-60
2023/07/29 04:45:48;;;;;;;6.68;3.00;;;;;;;;;;4967429;28;20392;-59
2023/07/29 04:48:14;;;;;;;6.43;3.60;;;;;;;;;;4969006;28;20031;-60
2023/07/29 04:50:41;;;;;;;5.88;3.28;;;;;;;;;;4970823;28;20051;-60
2023/07/29 04:53:07;;;;;;;10.63;4.57;;;;;;;;;;4970135;28;20053;-60
2023/07/29 04:55:33;;;;;;;6.05;3.45;;;;;;;;;;4968873;28;20131;-60
2023/07/29 04:58:00;;;;;;;5.18;2.95;;;;;;;;;;4969529;28;20050;-60
2023/07/29 05:00:26;;;;;;;10.40;5.18;;;;;;;;;;4963801;28;20061;-60
2023/07/29 05:02:52;;;;;;;9.98;4.55;;;;;;;;;;4967750;28;20073;-60
2023/07/29 05:05:18;;;;;;;4.60;2.80;;;;;;;;;;4971745;28;20033;-61
2023/07/29 05:07:45;;;;;;;5.63;2.70;;;;;;;;;;4975887;28;20046;-60
2023/07/29 05:10:11;;;;;;;5.40;2.88;;;;;;;;;;4974586;28;20030;-60
2023/07/29 05:12:37;;;;;;;4.88;2.92;;;;;;;;;;4970893;28;20039;-60
2023/07/29 05:15:03;;;;;;;4.75;2.78;;;;;;;;;;4967107;28;20054;-60
2023/07/29 05:17:31;;;;;;;4.70;2.88;;;;;;;;;;4964429;28;20077;-59
2023/07/29 05:19:58;;;;;;;7.65;3.08;;;;;;;;;;4971397;28;20047;-60
2023/07/29 05:22:24;;;;;;;7.75;3.08;;;;;;;;;;4964455;28;20038;-60
2023/07/29 05:24:51;;;;;;;4.65;3.03;;;;;;;;;;4965029;28;20427;-59
2023/07/29 05:27:17;;;;;;;8.20;3.38;;;;;;;;;;4969179;28;20510;-60
2023/07/29 05:29:43;;;;;;;8.32;3.45;;;;;;;;;;4967159;28;20046;-60
2023/07/29 05:32:09;;;;;;;5.93;3.00;;;;;;;;;;4962268;28;20039;-60
2023/07/29 05:34:35;;;;;;;5.82;3.67;;;;;;;;;;4967976;28;20049;-60
2023/07/29 05:37:01;;;;;;;11.98;3.13;;;;;;;;;;4967838;28;20050;-59
2023/07/29 05:39:29;;;;;;;10.63;3.50;;;;;;;;;;4964788;28;20054;-60
2023/07/29 05:41:56;;;;;;;7.63;3.45;;;;;;;;;;4965079;28;20070;-60
2023/07/29 05:44:22;;;;;;;10.32;4.57;;;;;;;;;;4965047;28;20057;-60
2023/07/29 05:46:48;;;;;;;7.72;3.20;;;;;;;;;;4965385;28;20510;-60
2023/07/29 05:49:14;;;;;;;5.60;3.38;;;;;;;;;;4967759;28;20502;-60
2023/07/29 05:51:41;;;;;;;8.43;3.00;;;;;;;;;;4965283;28;20050;-59
2023/07/29 05:54:07;;;;;;;5.45;2.65;;;;;;;;;;4975066;28;20050;-60
2023/07/29 05:56:33;;;;;;;4.35;2.47;;;;;;;;;;4973459;28;20050;-60
2023/07/29 05:58:59;;;;;;;5.28;2.70;;;;;;;;;;4975219;28;20046;-60
2023/07/29 06:01:26;;;;;;;7.13;2.55;;;;;;;;;;4964102;28;20051;-60
2023/07/29 06:03:52;;;;;;;3.60;2.17;;;;;;;;;;4968538;28;20054;-59
2023/07/29 06:06:18;;;;;;;5.15;2.30;;;;;;;;;;4967965;28;20049;-60
2023/07/29 06:08:44;;;;;;;4.18;2.42;;;;;;;;;;4966681;28;20062;-58
2023/07/29 06:11:10;;;;;;;4.25;2.40;;;;;;;;;;4954887;28;20038;-59
2023/07/29 06:13:36;;;;;;;4.72;2.70;;;;;;;;;;4964947;28;20482;-60
2023/07/29 06:16:03;;;;;;;4.22;2.67;;;;;;;;;;4968013;28;20039;-60
2023/07/29 06:18:29;;;;;;;4.50;2.40;;;;;;;;;;4965920;28;20035;-60
2023/07/29 06:20:55;;;;;;;4.45;2.70;;;;;;;;;;4966701;28;20066;-60
2023/07/29 06:23:21;;;;;;;8.43;2.83;;;;;;;;;;4965297;28;20034;-60
2023/07/29 06:25:47;;;;;;;12.18;3.63;;;;;;;;;;4967040;28;20045;-60
2023/07/29 06:28:13;;;;;;;6.88;3.92;;;;;;;;;;4969804;28;20050;-60
2023/07/29 06:30:40;;;;;;;6.63;3.28;;;;;;;;;;4961490;28;20058;-61
2023/07/29 06:33:06;;;;;;;7.38;3.75;;;;;;;;;;4970828;28;20406;-59
2023/07/29 06:35:32;;;;;;;6.10;3.65;;;;;;;;;;4968047;28;20429;-61
2023/07/29 06:37:58;;;;;;;9.88;4.50;;;;;;;;;;4964968;28;20050;-60
2023/07/29 06:40:24;;;;;;;10.38;5.43;;;;;;;;;;4969427;28;20517;-59
2023/07/29 06:42:51;;;;;;;8.50;4.50;;;;;;;;;;4966035;28;20051;-60
2023/07/29 06:45:17;;;;;;;11.60;4.80;;;;;;;;;;4966766;28;20055;-60
2023/07/29 06:47:45;;;;;;;7.32;4.13;;;;;;;;;;4967951;28;20059;-60
2023/07/29 06:50:11;;;;;;;6.75;4.55;;;;;;;;;;4969004;28;20051;-60
2023/07/29 06:52:38;;;;;;;8.40;4.85;;;;;;;;;;4966692;28;20070;-60
2023/07/29 06:55:04;;;;;;;11.77;5.70;;;;;;;;;;4974991;28;20042;-60
2023/07/29 06:57:30;;;;;;;9.90;4.30;;;;;;;;;;4973082;28;20058;-60
2023/07/29 06:59:56;;;;;;;8.98;4.05;;;;;;;;;;4974920;28;20142;-60
2023/07/29 07:02:22;;;;;;;6.22;3.78;;;;;;;;;;4972629;28;20047;-60
2023/07/29 07:04:48;;;;;;;6.45;4.00;;;;;;;;;;4974887;28;20042;-60
2023/07/29 07:07:15;;;;;;;6.47;4.18;;;;;;;;;;4970195;28;20035;-60
2023/07/29 07:09:41;;;;;;;8.27;3.63;;;;;;;;;;4969679;28;20038;-59
2023/07/29 07:12:08;;;;;;;9.73;3.95;;;;;;;;;;4969434;28;20479;-59
2023/07/29 07:14:34;;;;;;;8.65;4.35;;;;;;;;;;4969008;28;20043;-59
2023/07/29 07:17:00;;;;;;;8.38;4.10;;;;;;;;;;4971100;28;20423;-60
2023/07/29 07:19:26;;;;;;;13.15;5.22;;;;;;;;;;4968237;28;20035;-59
2023/07/29 07:21:52;;;;;;;8.93;3.92;;;;;;;;;;4972838;28;20034;-59
2023/07/29 07:24:18;;;;;;;10.05;3.72;;;;;;;;;;4971772;28;20525;-59
2023/07/29 07:26:44;;;;;;;6.18;3.45;;;;;;;;;;4969353;28;20502;-60
2023/07/29 07:29:10;;;;;;;9.00;4.70;;;;;;;;;;4974189;28;20043;-59
2023/07/29 07:31:36;;;;;;;17.50;8.45;;;;;;;;;;4964656;28;20041;-59
2023/07/29 07:34:03;;;;;;;8.68;4.22;;;;;;;;;;4968458;28;20042;-59
2023/07/29 07:36:30;;;;;;;7.70;3.40;;;;;;;;;;4967157;28;20055;-59
2023/07/29 07:38:56;;;;;;;7.70;4.05;;;;;;;;;;4969385;28;20427;-59
2023/07/29 07:41:23;;;;;;;9.55;5.53;;;;;;;;;;4968464;28;20031;-60
2023/07/29 07:43:50;;;;;;;13.05;5.72;;;;;;;;;;4968306;28;20042;-59
2023/07/29 07:46:16;;;;;;;12.48;4.82;;;;;;;;;;4971260;28;20057;-60
2023/07/29 07:48:42;;;;;;;6.60;3.70;;;;;;;;;;4968741;28;20046;-59
2023/07/29 07:51:12;;;;;;;6.95;3.30;;;;;;;;;;4969629;28;20035;-59
2023/07/29 07:53:38;;;;;;;7.72;3.20;;;;;;;;;;4976250;28;20053;-60
2023/07/29 07:56:04;;;;;;;9.45;4.28;;;;;;;;;;4978109;28;20042;-60
2023/07/29 07:58:30;;;;;;;8.60;4.45;;;;;;;;;;4972701;28;20047;-60
2023/07/29 08:01:04;;;;;;;9.82;4.63;;;;;;;;;;4972624;28;20030;-60
2023/07/29 08:03:30;;;;;;;7.78;3.70;;;;;;;;;;4966092;28;20429;-59
2023/07/29 08:05:57;;;;;;;9.93;5.50;;;;;;;;;;4969016;28;20458;-60
2023/07/29 08:08:23;;;;;;;8.27;3.72;;;;;;;;;;4971235;28;20030;-62
2023/07/29 08:10:49;;;;;;;6.20;3.03;;;;;;;;;;4968988;28;20065;-61
2023/07/29 08:13:15;;;;;;;7.78;3.75;;;;;;;;;;4972006;28;20034;-60
2023/07/29 08:15:41;;;;;;;7.97;3.35;;;;;;;;;;4971548;28;20176;-61
2023/07/29 08:18:07;;;;;;;6.07;3.05;;;;;;;;;;4964197;28;20042;-62
2023/07/29 08:20:33;;;;;;;5.03;2.60;;;;;;;;;;4967800;28;20046;-61
2023/07/29 08:22:59;;;;;;;4.63;2.40;;;;;;;;;;4971895;28;20041;-61
2023/07/29 08:25:25;;;;;;;4.15;2.65;;;;;;;;;;4972335;28;20050;-61
2023/07/29 08:27:51;;;;;;;4.72;2.97;;;;;;;;;;4972481;28;20035;-61
2023/07/29 08:30:18;;;;;;;4.28;2.28;;;;;;;;;;4968760;28;20513;-61
2023/07/29 08:32:45;;;;;;;4.82;2.63;;;;;;;;;;4963705;28;20046;-59
2023/07/29 08:35:11;;;;;;;6.22;2.45;;;;;;;;;;4967995;28;20424;-60
2023/07/29 08:37:37;;;;;;;6.55;3.20;;;;;;;;;;4972238;28;20054;-60
2023/07/29 08:40:03;;;;;;;5.57;3.45;;;;;;;;;;4968154;28;20039;-60
2023/07/29 08:42:32;;;;;;;5.00;2.80;;;;;;;;;;4965798;28;20050;-60
2023/07/29 08:45:08;;;;;;;6.95;3.17;;;;;;;;;;4969952;28;20043;-60
2023/07/29 08:47:34;;;;;;;5.25;3.10;;;;;;;;;;4967351;28;20135;-60
2023/07/29 08:50:02;;;;;;;4.88;2.83;;;;;;;;;;4970033;28;20027;-60
2023/07/29 08:52:29;;;;;;;5.80;2.90;;;;;;;;;;4972072;28;20047;-60
2023/07/29 08:54:56;;;;;;;8.98;3.17;;;;;;;;;;4975154;28;20053;-60
2023/07/29 08:57:23;;;;;;;5.38;2.63;;;;;;;;;;4968270;28;20111;-61
2023/07/29 08:59:49;;;;;;;4.93;3.10;;;;;;;;;;4972061;28;20042;-59
2023/07/29 09:02:15;;;;;;;6.50;3.00;;;;;;;;;;4970025;28;20035;-58
2023/07/29 09:04:42;;;;;;;7.20;3.35;;;;;;;;;;4969508;28;20065;-60
2023/07/29 09:07:09;;;;;;;5.68;3.22;;;;;;;;;;4966750;28;20045;-60
2023/07/29 09:09:35;;;;;;;4.20;2.90;;;;;;;;;;4964756;28;20046;-59
2023/07/29 09:12:01;;;;;;;5.80;3.45;;;;;;;;;;4966719;28;20035;-59
2023/07/29 09:14:28;;;;;;;8.48;4.25;;;;;;;;;;4969616;28;20053;-59
2023/07/29 09:16:54;;;;;;;6.00;3.42;;;;;;;;;;4968096;28;20518;-58
2023/07/29 09:19:20;;;;;;;8.77;3.65;;;;;;;;;;4965163;28;20046;-60
2023/07/29 09:21:47;;;;;;;6.97;3.40;;;;;;;;;;4967601;28;20042;-58
2023/07/29 09:24:16;;;;;;;8.88;3.80;;;;;;;;;;4968248;28;20421;-58
2023/07/29 09:26:53;;;;;;;6.05;3.67;;;;;;;;;;4967909;28;20046;-60
2023/07/29 09:29:23;;;;;;;4.72;3.38;;;;;;;;;;4968379;28;20042;-59
2023/07/29 09:31:51;;;;;;;5.65;3.30;;;;;;;;;;4964474;28;20078;-59
2023/07/29 09:34:17;;;;;;;5.82;3.03;;;;;;;;;;4966192;28;20039;-59
2023/07/29 09:36:43;;;;;;;5.10;3.33;;;;;;;;;;4971815;28;20050;-59
2023/07/29 09:39:13;;;;;;;5.38;3.10;;;;;;;;;;4970520;28;20082;-60
2023/07/29 09:41:39;;;;;;;;;;;;;;;;;;4968974;28;20441;-59
2023/07/29 09:44:07;;;;;;;6.03;3.58;;;;;;;;;;4968616;28;19921;-59
2023/07/29 09:46:36;;;;;;;6.07;3.60;;;;;;;;;;4967266;28;20058;-59
2023/07/29 09:49:05;;;;;;;6.50;3.88;;;;;;;;;;4970582;28;20046;-59
2023/07/29 09:51:36;;;;;;;6.75;3.63;;;;;;;;;;4973171;28;20042;-58
2023/07/29 09:54:02;;;;;;;6.72;4.00;;;;;;;;;;4971146;28;20051;-60
2023/07/29 09:56:29;;;;;;;5.55;3.42;;;;;;;;;;4968634;28;20498;-59
2023/07/29 09:58:56;;;;;;;7.45;3.83;;;;;;;;;;4970901;28;20042;-60
2023/07/29 10:01:25;;;;;;;8.65;4.20;;;;;;;;;;4970031;28;20026;-60
2023/07/29 10:03:51;;;;;;;;;;;;;;;;;;4972070;28;20422;-60
2023/07/29 10:06:18;;;;;;;7.05;3.70;;;;;;;;;;4967513;28;19921;-60
2023/07/29 10:08:45;;;;;;;8.40;3.85;;;;;;;;;;4966976;28;20049;-60
2023/07/29 10:11:11;;;;;;;6.82;3.92;;;;;;;;;;4967705;28;20050;-60
2023/07/29 10:13:38;;;;;;;9.65;4.32;;;;;;;;;;4967401;28;20482;-60
2023/07/29 10:16:05;;;;;;;5.70;3.92;;;;;;;;;;4969948;28;20422;-60
2023/07/29 10:18:32;;;;;;;5.72;3.90;;;;;;;;;;4968503;28;20035;-60
2023/07/29 10:20:59;;;;;;;6.38;3.83;;;;;;;;;;4965339;28;20030;-61
2023/07/29 10:23:27;;;;;;;5.88;4.13;;;;;;;;;;4965155;28;20035;-60
2023/07/29 10:26:09;;;;;;;6.18;3.90;;;;;;;;;;4966864;28;20038;-61
2023/07/29 10:28:39;;;;;;;7.05;4.28;;;;;;;;;;4968095;28;20062;-61
2023/07/29 10:31:06;;;;;;;6.63;4.32;;;;;;;;;;4969938;28;20442;-61
2023/07/29 10:33:33;;;;;;;7.63;4.82;;;;;;;;;;4967720;28;20034;-61
2023/07/29 10:36:00;;;;;;;12.90;4.53;;;;;;;;;;4971251;28;20454;-60
2023/07/29 10:38:27;;;;;;;5.68;4.07;;;;;;;;;;4970892;28;20419;-60
2023/07/29 10:40:56;;;;;;;5.45;3.75;;;;;;;;;;4971774;28;20050;-62
2023/07/29 10:43:31;;;;;;;6.97;4.30;;;;;;;;;;4970079;28;20046;-60
2023/07/29 10:45:58;;;;;;;8.70;4.18;;;;;;;;;;4968305;28;20054;-61
2023/07/29 10:48:33;;;;;;;6.38;4.20;;;;;;;;;;4969458;28;20050;-60
2023/07/29 10:51:35;;;;;;;6.88;3.65;;;;;;;;;;4973864;28;20042;-61
2023/07/29 10:54:02;;;;;;;6.25;3.58;;;;;;;;;;4966653;28;20514;-61
2023/07/29 10:56:36;;;;;;;19.67;6.03;;;;;;;;;;4970421;28;20046;-61
2023/07/29 10:59:30;;;;;;;14.48;4.25;;;;;;;;;;4972479;28;20061;-60
2023/07/29 11:01:58;;;;;;;6.25;3.95;;;;;;;;;;4967768;28;20039;-60
2023/07/29 11:04:33;;;;;;;8.40;4.10;;;;;;;;;;4968777;28;20062;-60
2023/07/29 11:07:05;;;;;;;8.82;3.80;;;;;;;;;;4970869;28;20050;-62
2023/07/29 11:09:49;;;;;;;6.03;3.72;;;;;;;;;;4968663;28;20376;-60
2023/07/29 11:12:45;;;;;;;7.20;3.72;;;;;;;;;;4967725;28;20513;-60
2023/07/29 11:15:13;;;;;;;8.25;3.95;;;;;;;;;;4966917;28;20513;-61
2023/07/29 11:17:44;;;;;;;6.40;3.88;;;;;;;;;;4964583;28;20051;-59
2023/07/29 11:20:11;;;;;;;5.55;3.90;;;;;;;;;;4968530;28;20422;-60
2023/07/29 11:22:38;;;;;;;7.18;3.53;;;;;;;;;;4964766;28;20047;-59
2023/07/29 11:25:06;;;;;;;4.63;3.40;;;;;;;;;;4968846;28;20047;-61
2023/07/29 11:27:36;;;;;;;4.50;3.40;;;;;;;;;;4969393;28;20051;-60
2023/07/29 11:30:08;;;;;;;5.30;3.50;;;;;;;;;;4969474;28;20054;-65
2023/07/29 11:32:35;;;;;;;4.60;3.38;;;;;;;;;;4965611;28;20634;-61
2023/07/29 11:35:14;;;;;;;5.90;3.78;;;;;;;;;;4966304;28;20042;-62
2023/07/29 11:37:42;;;;;;;6.30;3.30;;;;;;;;;;4964881;28;20380;-61
2023/07/29 11:40:11;;;;;;;6.90;3.85;;;;;;;;;;4968390;28;20043;-64
2023/07/29 11:42:38;;;;;;;5.38;3.40;;;;;;;;;;4964468;28;20042;-62
2023/07/29 11:45:06;;;;;;;4.80;3.33;;;;;;;;;;4969097;28;20058;-65
2023/07/29 11:47:36;;;;;;;9.20;3.58;;;;;;;;;;4964372;28;20426;-63
2023/07/29 11:50:09;;;;;;;6.38;3.88;;;;;;;;;;4970474;28;20402;-61
2023/07/29 11:52:37;;;;;;;7.25;3.80;;;;;;;;;;4968380;28;20055;-62
2023/07/29 11:55:04;;;;;;;11.43;3.97;;;;;;;;;;4968151;28;20045;-62
2023/07/29 11:57:33;;;;;;;9.63;3.50;;;;;;;;;;4969296;28;20402;-60
2023/07/29 12:00:01;;;;;;;5.78;3.85;;;;;;;;;;4969890;28;20048;-59
2023/07/29 12:02:38;;;;;;;4.82;3.05;;;;;;;;;;4969079;28;20038;-60
2023/07/29 12:05:05;;;;;;;4.20;3.33;;;;;;;;;;4967704;28;20031;-60
2023/07/29 12:07:33;;;;;;;4.10;2.88;;;;;;;;;;4962316;28;20035;-60
2023/07/29 12:09:59;;;;;;;4.88;3.13;;;;;;;;;;4967795;28;20054;-60
2023/07/29 12:12:25;;;;;;;5.22;2.88;;;;;;;;;;4965760;28;20050;-60
2023/07/29 12:14:54;;;;;;;6.78;3.17;;;;;;;;;;4964981;28;20047;-61
2023/07/29 12:17:20;;;;;;;;;;;;;;;;;;4967607;28;20062;-62
2023/07/29 12:19:46;;;;;;;4.30;2.67;;;;;;;;;;4968374;28;19918;-61
2023/07/29 12:22:18;;;;;;;3.72;2.88;;;;;;;;;;4968956;28;20055;-62
2023/07/29 12:24:44;;;;;;;3.58;2.50;;;;;;;;;;4970278;28;20045;-62
2023/07/29 12:27:12;;;;;;;3.58;2.90;;;;;;;;;;4969246;28;20050;-60
2023/07/29 12:29:42;;;;;;;8.13;2.80;;;;;;;;;;4966373;28;22655;-65
2023/07/29 12:32:09;;;;;;;5.07;3.13;;;;;;;;;;4964444;28;20305;-65
2023/07/29 12:34:38;;;;;;;3.80;2.63;;;;;;;;;;4968574;28;20422;-65
2023/07/29 12:37:06;;;;;;;4.28;2.90;;;;;;;;;;4973395;28;20533;-64
2023/07/29 12:39:34;;;;;;;4.20;2.80;;;;;;;;;;4967939;28;20059;-64
2023/07/29 12:42:01;;;;;;;2.97;2.37;;;;;;;;;;4965831;28;20042;-64
2023/07/29 12:44:33;;;;;;;4.45;3.20;;;;;;;;;;4968495;28;20031;-64
2023/07/29 12:47:02;;;;;;;5.45;3.22;;;;;;;;;;4969336;28;20042;-64
2023/07/29 12:49:31;;;;;;;16.23;3.72;;;;;;;;;;4968485;28;20055;-64
2023/07/29 12:51:57;;;;;;;;;;;;;;;;;;4969102;28;20041;-65
2023/07/29 12:54:23;;;;;;;4.18;2.70;;;;;;;;;;4967832;28;19914;-65
2023/07/29 12:56:50;;;;;;;4.88;3.03;;;;;;;;;;4972270;28;20042;-65
2023/07/29 12:59:16;;;;;;;5.75;2.92;;;;;;;;;;4972118;28;20066;-65
2023/07/29 13:01:43;;;;;;;4.07;2.70;;;;;;;;;;4963713;28;20047;-65
2023/07/29 13:04:12;;;;;;;5.57;3.05;;;;;;;;;;4974609;28;20030;-65
2023/07/29 13:06:38;;;;;;;6.80;3.33;;;;;;;;;;4972674;28;20042;-66
2023/07/29 13:09:05;;;;;;;7.18;3.00;;;;;;;;;;4971107;28;20038;-66
2023/07/29 13:11:34;;;;;;;3.78;2.78;;;;;;;;;;4969482;28;20043;-65
2023/07/29 13:14:01;;;;;;;5.00;3.00;;;;;;;;;;4969136;28;20046;-66
2023/07/29 13:16:30;;;;;;;4.70;2.92;;;;;;;;;;4967296;28;20054;-66
2023/07/29 13:18:56;;;;;;;4.55;3.20;;;;;;;;;;4970922;28;20061;-66
2023/07/29 13:21:26;;;;;;;4.20;3.08;;;;;;;;;;4965308;28;20054;-66
2023/07/29 13:23:52;;;;;;;4.47;3.00;;;;;;;;;;4963494;28;20046;-65
2023/07/29 13:26:18;;;;;;;5.78;3.35;;;;;;;;;;4971336;28;20043;-66
2023/07/29 13:28:44;;;;;;;8.55;3.22;;;;;;;;;;4970421;28;20050;-66
2023/07/29 13:31:11;;;;;;;4.85;2.90;;;;;;;;;;4965672;28;20040;-65
2023/07/29 13:33:37;;;;;;;4.57;3.42;;;;;;;;;;4966201;28;20042;-65
2023/07/29 13:36:03;;;;;;;6.65;3.35;;;;;;;;;;4970459;28;20446;-65
2023/07/29 13:38:29;;;;;;;7.88;3.28;;;;;;;;;;4967185;28;20038;-66
2023/07/29 13:40:56;;;;;;;4.20;3.30;;;;;;;;;;4968246;28;20062;-66
2023/07/29 13:43:22;;;;;;;5.20;3.20;;;;;;;;;;4967341;28;20054;-65
2023/07/29 13:45:49;;;;;;;5.13;3.20;;;;;;;;;;4971131;28;20031;-66
2023/07/29 13:48:16;;;;;;;4.25;3.20;;;;;;;;;;4969030;28;20066;-65
2023/07/29 13:50:43;;;;;;;4.53;3.25;;;;;;;;;;4968223;28;20062;-65
2023/07/29 13:53:10;;;;;;;5.28;3.33;;;;;;;;;;4970165;28;20035;-65
2023/07/29 13:55:36;;;;;;;4.93;3.45;;;;;;;;;;4969607;28;20057;-65
2023/07/29 13:58:02;;;;;;;5.22;3.33;;;;;;;;;;4974268;28;20042;-65
2023/07/29 14:00:28;;;;;;;5.65;3.42;;;;;;;;;;4968192;28;20034;-65
2023/07/29 14:02:54;;;;;;;5.38;3.05;;;;;;;;;;4968813;28;20453;-65
2023/07/29 14:05:21;;;;;;;4.65;3.10;;;;;;;;;;4967071;28;20045;-65
2023/07/29 14:07:47;;;;;;;3.45;3.13;;;;;;;;;;4968799;28;20035;-65
2023/07/29 14:10:13;;;;;;;5.78;2.95;;;;;;;;;;4969916;28;20035;-65
2023/07/29 14:12:39;;;;;;;7.25;3.08;;;;;;;;;;4966192;28;20129;-65
2023/07/29 14:15:06;;;;;;;5.72;3.65;;;;;;;;;;4976423;28;20038;-65
2023/07/29 14:17:32;;;;;;;5.03;3.42;;;;;;;;;;4971619;28;20049;-64
2023/07/29 14:19:58;;;;;;;4.50;3.25;;;;;;;;;;4970917;28;20039;-65
2023/07/29 14:22:24;;;;;;;5.68;3.33;;;;;;;;;;4970031;28;20046;-64
2023/07/29 14:24:50;;;;;;;5.57;3.20;;;;;;;;;;4971101;28;20084;-65
2023/07/29 14:27:16;;;;;;;5.03;3.10;;;;;;;;;;4972394;28;20543;-64
2023/07/29 14:29:43;;;;;;;4.80;3.50;;;;;;;;;;4968083;28;20043;-64
2023/07/29 14:32:09;;;;;;;4.63;3.20;;;;;;;;;;4970022;28;20510;-64
2023/07/29 14:34:35;;;;;;;4.75;3.15;;;;;;;;;;4970261;28;20046;-65
2023/07/29 14:37:01;;;;;;;4.15;3.10;;;;;;;;;;4973111;28;20664;-65
2023/07/29 14:39:27;;;;;;;4.15;2.95;;;;;;;;;;4970680;28;20054;-65
2023/07/29 14:41:53;;;;;;;5.05;3.20;;;;;;;;;;4972031;28;20662;-66
2023/07/29 14:44:19;;;;;;;4.43;3.33;;;;;;;;;;4970804;28;20578;-66
2023/07/29 14:46:45;;;;;;;5.07;3.10;;;;;;;;;;4971072;28;20541;-66